This is the latest recevied weather packets stored in our database for station/object K7ZQU-7. If no packets are shown the sender has not sent any weather packets the latest 10 day(s).
| Time | Temp. | Humidity | Pressure | Rain* | Wind** | Luminosity | Snow |
|---|---|---|---|---|---|---|---|
| 1777427471 | 7.78° C | 70% | 1018.2 hPa | 0 mm | 1.79 m/s, 332° | - | - |
| 1777427172 | 7.78° C | 68% | 1018.2 hPa | 0 mm | 2.68 m/s, 309° | - | - |
| 1777426571 | 8.33° C | 67% | 1018.3 hPa | 0 mm | 3.13 m/s, 297° | - | - |
| 1777426272 | 8.33° C | 66% | 1018.2 hPa | 0 mm | 3.58 m/s, 307° | - | - |
| 1777425372 | 8.33° C | 61% | 1018.3 hPa | 0 mm | 2.68 m/s, 293° | - | - |
| 1777425073 | 8.89° C | 59% | 1018.3 hPa | 0 mm | 2.68 m/s, 326° | - | - |
| 1777424774 | 8.89° C | 58% | 1018.2 hPa | 0 mm | 3.13 m/s, 314° | - | - |
| 1777424476 | 9.44° C | 57% | 1018.2 hPa | 0 mm | 3.13 m/s, 294° | - | - |
| 1777424176 | 9.44° C | 56% | 1018.3 hPa | 0 mm | 2.24 m/s, 284° | - | - |
| 1777423576 | 10.56° C | 52% | 1018.3 hPa | 0 mm | 3.58 m/s, 312° | - | - |
| 1777423277 | 11.11° C | 51% | 1018.3 hPa | 0 mm | 0.45 m/s, 301° | - | - |
| 1777422978 | 11.11° C | 50% | 1018.4 hPa | 0 mm | 0.89 m/s, 235° | - | - |
| 1777422679 | 11.67° C | 45% | 1018.3 hPa | 0 mm | 2.68 m/s, 301° | - | - |
| 1777422377 | 11.67° C | 44% | 1018.4 hPa | 0 mm | 3.13 m/s, 287° | - | - |
| 1777422078 | 11.67° C | 47% | 1018.3 hPa | 0 mm | 0.89 m/s, 301° | - | - |
| 1777421779 | 11.67° C | 46% | 1018.3 hPa | 0 mm | 2.24 m/s, 219° | - | - |
| 1777421480 | 11.67° C | 45% | 1018.1 hPa | 0 mm | 3.13 m/s, 328° | - | - |
| 1777420880 | 11.67° C | 47% | 1018.1 hPa | 0 mm | 3.13 m/s, 283° | - | - |
| 1777420581 | 11.67° C | 48% | 1018.1 hPa | 0 mm | 1.34 m/s, 225° | - | - |
| 1777419983 | 11.11° C | 48% | 1018.2 hPa | 0 mm | 2.68 m/s, 352° | - | - |
| 1777419382 | 11.11° C | 47% | 1017.9 hPa | 0 mm | 3.58 m/s, 287° | - | - |
| 1777418784 | 10.56° C | 53% | 1018.1 hPa | 0 mm | 1.34 m/s, 304° | - | - |
| 1777418186 | 10.56° C | 51% | 1018.1 hPa | 0 mm | 1.79 m/s, 315° | - | - |
| 1777417586 | 10.56° C | 53% | 1018.4 hPa | 0 mm | 1.79 m/s, 301° | - | - |
| 1777416988 | 10° C | 53% | 1018.2 hPa | 0 mm | 0.89 m/s, 316° | - | - |
* Rain latest hour (hover to see other rain measurements)
** Current wind speed in m/s (hover to see current wind gust speed)